sensor_id;sensor_type;location;lat;lon;timestamp;pressure;altitude;pressure_sealevel;temperature;humidity
10638;BME280;47007;49.252;8.904;2023-04-26T00:00:33;99901.00;;;5.64;100.00
10638;BME280;47007;49.252;8.904;2023-04-26T00:01:15;99819.09;;;5.23;100.00
10638;BME280;47007;49.252;8.904;2023-04-26T00:01:57;99888.88;;;5.71;100.00
10638;BME280;47007;49.252;8.904;2023-04-26T00:02:39;99892.19;;;5.73;100.00
10638;BME280;47007;49.252;8.904;2023-04-26T00:03:21;99889.56;;;5.73;100.00
10638;BME280;47007;49.252;8.904;2023-04-26T00:04:04;99862.00;;;5.59;100.00
10638;BME280;47007;49.252;8.904;2023-04-26T00:04:46;99897.22;;;5.84;100.00
10638;BME280;47007;49.252;8.904;2023-04-26T00:05:28;99861.41;;;5.65;100.00
10638;BME280;47007;49.252;8.904;2023-04-26T00:06:10;99890.84;;;5.87;100.00
10638;BME280;47007;49.252;8.904;2023-04-26T00:06:55;99871.97;;;5.73;100.00
10638;BME280;47007;49.252;8.904;2023-04-26T00:07:36;99865.06;;;5.72;100.00
10638;BME280;47007;49.252;8.904;2023-04-26T00:08:18;99891.97;;;5.84;100.00
10638;BME280;47007;49.252;8.904;2023-04-26T00:09:00;99871.16;;;5.73;100.00
10638;BME280;47007;49.252;8.904;2023-04-26T00:09:41;99860.59;;;5.65;100.00
10638;BME280;47007;49.252;8.904;2023-04-26T00:10:25;99878.50;;;5.69;100.00
10638;BME280;47007;49.252;8.904;2023-04-26T00:11:07;99892.34;;;5.71;100.00
10638;BME280;47007;49.252;8.904;2023-04-26T00:11:48;99899.25;;;5.72;100.00
10638;BME280;47007;49.252;8.904;2023-04-26T00:12:30;99880.72;;;5.56;100.00
10638;BME280;47007;49.252;8.904;2023-04-26T00:13:12;99902.66;;;5.65;100.00
10638;BME280;47007;49.252;8.904;2023-04-26T00:13:53;99894.00;;;5.55;100.00
10638;BME280;47007;49.252;8.904;2023-04-26T00:14:35;99877.38;;;5.36;100.00
10638;BME280;47007;49.252;8.904;2023-04-26T00:15:17;99893.84;;;5.38;100.00
10638;BME280;47007;49.252;8.904;2023-04-26T00:15:58;99897.66;;;5.44;100.00
10638;BME280;47007;49.252;8.904;2023-04-26T00:16:40;99899.78;;;5.40;100.00
10638;BME280;47007;49.252;8.904;2023-04-26T00:17:22;99901.56;;;5.40;100.00
10638;BME280;47007;49.252;8.904;2023-04-26T00:18:05;99906.28;;;5.36;100.00
10638;BME280;47007;49.252;8.904;2023-04-26T00:18:46;99901.47;;;5.32;100.00
10638;BME280;47007;49.252;8.904;2023-04-26T00:19:29;99880.56;;;5.13;100.00
10638;BME280;47007;49.252;8.904;2023-04-26T00:20:12;99871.78;;;5.04;100.00
10638;BME280;47007;49.252;8.904;2023-04-26T00:20:54;99899.22;;;5.19;100.00
10638;BME280;47007;49.252;8.904;2023-04-26T00:21:36;99891.06;;;5.13;100.00
10638;BME280;47007;49.252;8.904;2023-04-26T00:22:17;99891.06;;;5.13;100.00
10638;BME280;47007;49.252;8.904;2023-04-26T00:22:59;99902.81;;;5.18;100.00
10638;BME280;47007;49.252;8.904;2023-04-26T00:23:41;99887.63;;;5.12;100.00
10638;BME280;47007;49.252;8.904;2023-04-26T00:24:22;99898.56;;;5.07;100.00
10638;BME280;47007;49.252;8.904;2023-04-26T00:25:04;99883.78;;;5.07;100.00
10638;BME280;47007;49.252;8.904;2023-04-26T00:25:46;99873.03;;;5.00;100.00
10638;BME280;47007;49.252;8.904;2023-04-26T00:26:28;99900.00;;;5.20;100.00
10638;BME280;47007;49.252;8.904;2023-04-26T00:27:10;99897.84;;;5.15;100.00
10638;BME280;47007;49.252;8.904;2023-04-26T00:27:52;99903.47;;;5.20;100.00
10638;BME280;47007;49.252;8.904;2023-04-26T00:28:33;99888.59;;;5.11;100.00
10638;BME280;47007;49.252;8.904;2023-04-26T00:29:15;99874.69;;;5.01;100.00
10638;BME280;47007;49.252;8.904;2023-04-26T00:29:57;99903.94;;;5.16;100.00
10638;BME280;47007;49.252;8.904;2023-04-26T00:30:38;99904.06;;;5.14;100.00
10638;BME280;47007;49.252;8.904;2023-04-26T00:31:23;99904.22;;;5.13;100.00
10638;BME280;47007;49.252;8.904;2023-04-26T00:32:05;99866.19;;;4.89;100.00
10638;BME280;47007;49.252;8.904;2023-04-26T00:32:47;99797.94;;;4.52;100.00
10638;BME280;47007;49.252;8.904;2023-04-26T00:33:29;99884.22;;;5.02;100.00
10638;BME280;47007;49.252;8.904;2023-04-26T00:34:11;99912.63;;;5.16;100.00
10638;BME280;47007;49.252;8.904;2023-04-26T00:34:52;99841.78;;;4.79;100.00
10638;BME280;47007;49.252;8.904;2023-04-26T00:35:34;99904.16;;;5.22;100.00
10638;BME280;47007;49.252;8.904;2023-04-26T00:36:16;99903.03;;;5.25;100.00
10638;BME280;47007;49.252;8.904;2023-04-26T00:37:00;99895.59;;;5.20;100.00
10638;BME280;47007;49.252;8.904;2023-04-26T00:37:44;99905.09;;;5.31;100.00
10638;BME280;47007;49.252;8.904;2023-04-26T00:38:25;99903.94;;;5.33;100.00
10638;BME280;47007;49.252;8.904;2023-04-26T00:39:07;99900.81;;;5.30;100.00
10638;BME280;47007;49.252;8.904;2023-04-26T00:39:49;99901.78;;;5.29;100.00
10638;BME280;47007;49.252;8.904;2023-04-26T00:40:31;99904.16;;;5.22;100.00
10638;BME280;47007;49.252;8.904;2023-04-26T00:41:15;99883.41;;;5.01;100.00
10638;BME280;47007;49.252;8.904;2023-04-26T00:41:57;99895.00;;;4.99;100.00
10638;BME280;47007;49.252;8.904;2023-04-26T00:42:39;99899.44;;;4.98;100.00
10638;BME280;47007;49.252;8.904;2023-04-26T00:43:20;99873.56;;;4.76;100.00
10638;BME280;47007;49.252;8.904;2023-04-26T00:44:02;99889.41;;;4.84;100.00
10638;BME280;47007;49.252;8.904;2023-04-26T00:44:44;99899.72;;;4.95;100.00
10638;BME280;47007;49.252;8.904;2023-04-26T00:45:26;99894.94;;;4.91;100.00
10638;BME280;47007;49.252;8.904;2023-04-26T00:46:08;99876.59;;;4.81;100.00
10638;BME280;47007;49.252;8.904;2023-04-26T00:46:51;99895.28;;;4.96;100.00
10638;BME280;47007;49.252;8.904;2023-04-26T00:47:34;99906.63;;;4.96;100.00
10638;BME280;47007;49.252;8.904;2023-04-26T00:48:17;99904.69;;;4.98;100.00
10638;BME280;47007;49.252;8.904;2023-04-26T00:48:58;99868.53;;;4.83;100.00
10638;BME280;47007;49.252;8.904;2023-04-26T00:49:40;99895.00;;;4.99;100.00
10638;BME280;47007;49.252;8.904;2023-04-26T00:50:25;99896.75;;;5.08;100.00
10638;BME280;47007;49.252;8.904;2023-04-26T00:51:07;99875.13;;;4.96;100.00
10638;BME280;47007;49.252;8.904;2023-04-26T00:51:51;99900.91;;;5.11;100.00
10638;BME280;47007;49.252;8.904;2023-04-26T00:52:33;99901.63;;;5.03;100.00
10638;BME280;47007;49.252;8.904;2023-04-26T00:53:15;99894.47;;;4.95;100.00
10638;BME280;47007;49.252;8.904;2023-04-26T00:53:58;99888.56;;;4.84;100.00
10638;BME280;47007;49.252;8.904;2023-04-26T00:54:40;99899.72;;;4.95;100.00
10638;BME280;47007;49.252;8.904;2023-04-26T00:55:22;99895.59;;;4.93;100.00
10638;BME280;47007;49.252;8.904;2023-04-26T00:56:05;99891.31;;;4.92;100.00
10638;BME280;47007;49.252;8.904;2023-04-26T00:56:48;99886.91;;;4.92;100.00
10638;BME280;47007;49.252;8.904;2023-04-26T00:57:33;99826.13;;;4.50;100.00
10638;BME280;47007;49.252;8.904;2023-04-26T00:58:14;99905.28;;;4.92;100.00
10638;BME280;47007;49.252;8.904;2023-04-26T00:58:56;99834.16;;;4.49;100.00
10638;BME280;47007;49.252;8.904;2023-04-26T00:59:38;99883.09;;;4.77;100.00
10638;BME280;47007;49.252;8.904;2023-04-26T01:00:20;99858.72;;;4.57;100.00
10638;BME280;47007;49.252;8.904;2023-04-26T01:01:02;99899.97;;;4.75;100.00
10638;BME280;47007;49.252;8.904;2023-04-26T01:01:44;99866.31;;;4.51;100.00
10638;BME280;47007;49.252;8.904;2023-04-26T01:02:25;99882.06;;;4.51;100.00
10638;BME280;47007;49.252;8.904;2023-04-26T01:03:07;99874.09;;;4.43;100.00
10638;BME280;47007;49.252;8.904;2023-04-26T01:03:49;99895.75;;;4.54;100.00
10638;BME280;47007;49.252;8.904;2023-04-26T01:04:31;99903.06;;;4.51;100.00
10638;BME280;47007;49.252;8.904;2023-04-26T01:05:14;99896.75;;;4.44;100.00
10638;BME280;47007;49.252;8.904;2023-04-26T01:05:58;99873.31;;;4.23;100.00
10638;BME280;47007;49.252;8.904;2023-04-26T01:06:39;99904.63;;;4.34;100.00
10638;BME280;47007;49.252;8.904;2023-04-26T01:07:22;99885.59;;;4.22;100.00
10638;BME280;47007;49.252;8.904;2023-04-26T01:08:05;99909.22;;;4.32;100.00
10638;BME280;47007;49.252;8.904;2023-04-26T01:08:47;99903.41;;;4.28;100.00
10638;BME280;47007;49.252;8.904;2023-04-26T01:09:30;99875.53;;;4.18;100.00
10638;BME280;47007;49.252;8.904;2023-04-26T01:10:13;99914.56;;;4.40;100.00
10638;BME280;47007;49.252;8.904;2023-04-26T01:10:55;99902.97;;;4.43;100.00
10638;BME280;47007;49.252;8.904;2023-04-26T01:11:36;99907.91;;;4.46;100.00
10638;BME280;47007;49.252;8.904;2023-04-26T01:12:19;99850.81;;;4.11;100.00
10638;BME280;47007;49.252;8.904;2023-04-26T01:13:02;99908.88;;;4.54;100.00
10638;BME280;47007;49.252;8.904;2023-04-26T01:13:45;99886.91;;;4.46;100.00
10638;BME280;47007;49.252;8.904;2023-04-26T01:14:27;99905.66;;;4.60;100.00
10638;BME280;47007;49.252;8.904;2023-04-26T01:15:10;99902.06;;;4.61;100.00
10638;BME280;47007;49.252;8.904;2023-04-26T01:15:52;99906.75;;;4.67;100.00
10638;BME280;47007;49.252;8.904;2023-04-26T01:16:35;99906.63;;;4.69;100.00
10638;BME280;47007;49.252;8.904;2023-04-26T01:17:16;99913.38;;;4.72;100.00
10638;BME280;47007;49.252;8.904;2023-04-26T01:17:59;99904.66;;;4.71;100.00
10638;BME280;47007;49.252;8.904;2023-04-26T01:18:41;99907.16;;;4.73;100.00
10638;BME280;47007;49.252;8.904;2023-04-26T01:19:23;99901.50;;;4.67;100.00
10638;BME280;47007;49.252;8.904;2023-04-26T01:20:06;99880.13;;;4.53;100.00
10638;BME280;47007;49.252;8.904;2023-04-26T01:20:50;99904.84;;;4.69;100.00
10638;BME280;47007;49.252;8.904;2023-04-26T01:21:33;99890.22;;;4.57;100.00
10638;BME280;47007;49.252;8.904;2023-04-26T01:22:15;99896.28;;;4.58;100.00
10638;BME280;47007;49.252;8.904;2023-04-26T01:22:56;99889.53;;;4.55;100.00
10638;BME280;47007;49.252;8.904;2023-04-26T01:23:38;99904.28;;;4.66;100.00
10638;BME280;47007;49.252;8.904;2023-04-26T01:24:20;99912.00;;;4.67;100.00
10638;BME280;47007;49.252;8.904;2023-04-26T01:25:03;99900.97;;;4.64;100.00
10638;BME280;47007;49.252;8.904;2023-04-26T01:25:49;99902.19;;;4.69;100.00
10638;BME280;47007;49.252;8.904;2023-04-26T01:26:31;99909.63;;;4.74;100.00
10638;BME280;47007;49.252;8.904;2023-04-26T01:27:12;99909.50;;;4.76;100.00
10638;BME280;47007;49.252;8.904;2023-04-26T01:27:54;99912.13;;;4.76;100.00
10638;BME280;47007;49.252;8.904;2023-04-26T01:28:38;99892.94;;;4.65;100.00
10638;BME280;47007;49.252;8.904;2023-04-26T01:29:21;99906.88;;;4.76;100.00
10638;BME280;47007;49.252;8.904;2023-04-26T01:30:05;99905.50;;;4.72;100.00
10638;BME280;47007;49.252;8.904;2023-04-26T01:30:47;99907.84;;;4.75;100.00
10638;BME280;47007;49.252;8.904;2023-04-26T01:31:28;99901.75;;;4.74;100.00
10638;BME280;47007;49.252;8.904;2023-04-26T01:32:11;99899.41;;;4.71;100.00
10638;BME280;47007;49.252;8.904;2023-04-26T01:32:53;99905.06;;;4.76;100.00
10638;BME280;47007;49.252;8.904;2023-04-26T01:33:35;99907.69;;;4.76;100.00
10638;BME280;47007;49.252;8.904;2023-04-26T01:34:17;99884.66;;;4.60;100.00
10638;BME280;47007;49.252;8.904;2023-04-26T01:34:59;99908.53;;;4.77;100.00
10638;BME280;47007;49.252;8.904;2023-04-26T01:35:41;99879.72;;;4.57;100.00
10638;BME280;47007;49.252;8.904;2023-04-26T01:36:23;99896.94;;;4.69;100.00
10638;BME280;47007;49.252;8.904;2023-04-26T01:37:05;99888.38;;;4.67;100.00
10638;BME280;47007;49.252;8.904;2023-04-26T01:37:48;99871.44;;;4.52;100.00
10638;BME280;47007;49.252;8.904;2023-04-26T01:38:29;99899.03;;;4.66;100.00
10638;BME280;47007;49.252;8.904;2023-04-26T01:39:11;99900.97;;;4.64;100.00
10638;BME280;47007;49.252;8.904;2023-04-26T01:39:53;99895.16;;;4.60;100.00
10638;BME280;47007;49.252;8.904;2023-04-26T01:40:34;99897.66;;;4.62;100.00
10638;BME280;47007;49.252;8.904;2023-04-26T01:41:19;99894.88;;;4.63;100.00
10638;BME280;47007;49.252;8.904;2023-04-26T01:42:02;99895.03;;;4.62;100.00
10638;BME280;47007;49.252;8.904;2023-04-26T01:42:45;99893.09;;;4.64;100.00
10638;BME280;47007;49.252;8.904;2023-04-26T01:43:27;99871.44;;;4.52;100.00
10638;BME280;47007;49.252;8.904;2023-04-26T01:44:11;99900.13;;;4.63;100.00
10638;BME280;47007;49.252;8.904;2023-04-26T01:44:52;99894.34;;;4.60;100.00
10638;BME280;47007;49.252;8.904;2023-04-26T01:45:35;99901.84;;;4.55;100.00
10638;BME280;47007;49.252;8.904;2023-04-26T01:46:36;99896.88;;;4.42;100.00
10638;BME280;47007;49.252;8.904;2023-04-26T01:47:18;99905.31;;;4.36;100.00
10638;BME280;47007;49.252;8.904;2023-04-26T01:47:59;99904.50;;;4.26;100.00
10638;BME280;47007;49.252;8.904;2023-04-26T01:48:41;99818.88;;;3.69;100.00
10638;BME280;47007;49.252;8.904;2023-04-26T01:49:23;99910.47;;;4.09;100.00
10638;BME280;47007;49.252;8.904;2023-04-26T01:50:05;99902.75;;;4.07;100.00
10638;BME280;47007;49.252;8.904;2023-04-26T01:50:47;99900.97;;;4.08;100.00
10638;BME280;47007;49.252;8.904;2023-04-26T01:51:28;99904.25;;;4.10;100.00
10638;BME280;47007;49.252;8.904;2023-04-26T01:52:10;99846.03;;;3.77;100.00
10638;BME280;47007;49.252;8.904;2023-04-26T01:52:52;99873.47;;;4.02;100.00
10638;BME280;47007;49.252;8.904;2023-04-26T01:53:36;99893.47;;;4.13;100.00
10638;BME280;47007;49.252;8.904;2023-04-26T01:54:18;99896.22;;;4.21;100.00
10638;BME280;47007;49.252;8.904;2023-04-26T01:54:59;99833.75;;;3.87;100.00
10638;BME280;47007;49.252;8.904;2023-04-26T01:55:41;99903.53;;;4.27;100.00
10638;BME280;47007;49.252;8.904;2023-04-26T01:56:23;99878.97;;;4.09;100.00
10638;BME280;47007;49.252;8.904;2023-04-26T01:57:06;99887.03;;;4.07;100.00
10638;BME280;47007;49.252;8.904;2023-04-26T01:57:48;99900.53;;;4.12;100.00
10638;BME280;47007;49.252;8.904;2023-04-26T01:58:30;99884.66;;;4.04;100.00
10638;BME280;47007;49.252;8.904;2023-04-26T01:59:11;99898.47;;;4.06;100.00
10638;BME280;47007;49.252;8.904;2023-04-26T01:59:53;99898.88;;;4.02;100.00
10638;BME280;47007;49.252;8.904;2023-04-26T02:00:36;99867.97;;;3.86;100.00
10638;BME280;47007;49.252;8.904;2023-04-26T02:01:18;99898.06;;;4.01;100.00
10638;BME280;47007;49.252;8.904;2023-04-26T02:01:59;99895.28;;;4.03;100.00
10638;BME280;47007;49.252;8.904;2023-04-26T02:02:41;99887.69;;;4.00;100.00
10638;BME280;47007;49.252;8.904;2023-04-26T02:03:23;99889.63;;;4.07;100.00
10638;BME280;47007;49.252;8.904;2023-04-26T02:04:05;99912.41;;;4.07;100.00
10638;BME280;47007;49.252;8.904;2023-04-26T02:04:46;99894.31;;;4.04;100.00
10638;BME280;47007;49.252;8.904;2023-04-26T02:05:29;99878.19;;;3.89;100.00
10638;BME280;47007;49.252;8.904;2023-04-26T02:06:11;99890.59;;;3.96;100.00
10638;BME280;47007;49.252;8.904;2023-04-26T02:06:53;99891.41;;;3.97;100.00
10638;BME280;47007;49.252;8.904;2023-04-26T02:07:34;99823.72;;;3.54;100.00
10638;BME280;47007;49.252;8.904;2023-04-26T02:08:16;99899.00;;;4.00;100.00
10638;BME280;47007;49.252;8.904;2023-04-26T02:08:57;99901.38;;;4.03;100.00
10638;BME280;47007;49.252;8.904;2023-04-26T02:09:39;99891.72;;;4.04;100.00
10638;BME280;47007;49.252;8.904;2023-04-26T02:10:22;99819.69;;;3.59;100.00
10638;BME280;47007;49.252;8.904;2023-04-26T02:11:04;99897.22;;;4.01;100.00
10638;BME280;47007;49.252;8.904;2023-04-26T02:11:46;99904.53;;;4.07;100.00
10638;BME280;47007;49.252;8.904;2023-04-26T02:12:27;99898.59;;;4.05;100.00
10638;BME280;47007;49.252;8.904;2023-04-26T02:13:09;99896.94;;;4.04;100.00
10638;BME280;47007;49.252;8.904;2023-04-26T02:13:51;99905.50;;;4.06;100.00
10638;BME280;47007;49.252;8.904;2023-04-26T02:14:34;99902.19;;;4.04;100.00
10638;BME280;47007;49.252;8.904;2023-04-26T02:15:16;99902.47;;;4.01;100.00
10638;BME280;47007;49.252;8.904;2023-04-26T02:15:58;99901.38;;;3.93;100.00
10638;BME280;47007;49.252;8.904;2023-04-26T02:16:40;99897.38;;;3.89;100.00
10638;BME280;47007;49.252;8.904;2023-04-26T02:17:21;99900.25;;;3.86;100.00
10638;BME280;47007;49.252;8.904;2023-04-26T02:18:04;99896.81;;;3.86;100.00
10638;BME280;47007;49.252;8.904;2023-04-26T02:18:46;99900.25;;;3.86;100.00
10638;BME280;47007;49.252;8.904;2023-04-26T02:19:30;99897.09;;;3.83;100.00
10638;BME280;47007;49.252;8.904;2023-04-26T02:20:12;99903.31;;;3.91;100.00
10638;BME280;47007;49.252;8.904;2023-04-26T02:20:53;99900.56;;;3.93;100.00
10638;BME280;47007;49.252;8.904;2023-04-26T02:21:51;99906.31;;;3.96;100.00
10638;BME280;47007;49.252;8.904;2023-04-26T02:22:33;99896.13;;;3.93;100.00
10638;BME280;47007;49.252;8.904;2023-04-26T02:23:14;99895.28;;;3.83;100.00
10638;BME280;47007;49.252;8.904;2023-04-26T02:23:57;99901.50;;;3.92;100.00
10638;BME280;47007;49.252;8.904;2023-04-26T02:24:38;99907.47;;;3.94;100.00
10638;BME280;47007;49.252;8.904;2023-04-26T02:25:20;99898.47;;;3.87;100.00
10638;BME280;47007;49.252;8.904;2023-04-26T02:26:02;99837.78;;;3.53;100.00
10638;BME280;47007;49.252;8.904;2023-04-26T02:26:43;99912.13;;;4.00;100.00
10638;BME280;47007;49.252;8.904;2023-04-26T02:27:25;99872.13;;;3.79;100.00
10638;BME280;47007;49.252;8.904;2023-04-26T02:28:08;99908.69;;;4.00;100.00
10638;BME280;47007;49.252;8.904;2023-04-26T02:28:50;99915.19;;;3.95;100.00
10638;BME280;47007;49.252;8.904;2023-04-26T02:29:32;99908.00;;;3.88;100.00
10638;BME280;47007;49.252;8.904;2023-04-26T02:30:25;99911.59;;;3.77;100.00
10638;BME280;47007;49.252;8.904;2023-04-26T02:31:07;99912.81;;;3.73;100.00
10638;BME280;47007;49.252;8.904;2023-04-26T02:31:49;99910.06;;;3.75;100.00
10638;BME280;47007;49.252;8.904;2023-04-26T02:32:31;99911.59;;;3.77;100.00
10638;BME280;47007;49.252;8.904;2023-04-26T02:33:12;99920.00;;;3.81;100.00
10638;BME280;47007;49.252;8.904;2023-04-26T02:33:54;99912.69;;;3.84;100.00
10638;BME280;47007;49.252;8.904;2023-04-26T02:34:36;99895.59;;;3.80;100.00
10638;BME280;47007;49.252;8.904;2023-04-26T02:35:18;99914.63;;;3.92;100.00
10638;BME280;47007;49.252;8.904;2023-04-26T02:36:03;99913.38;;;3.96;100.00
10638;BME280;47007;49.252;8.904;2023-04-26T02:36:49;99903.56;;;3.88;100.00
10638;BME280;47007;49.252;8.904;2023-04-26T02:37:31;99890.88;;;3.84;100.00
10638;BME280;47007;49.252;8.904;2023-04-26T02:38:13;99919.03;;;3.91;100.00
10638;BME280;47007;49.252;8.904;2023-04-26T02:38:55;99903.59;;;3.69;100.00
10638;BME280;47007;49.252;8.904;2023-04-26T02:39:36;99923.16;;;3.75;100.00
10638;BME280;47007;49.252;8.904;2023-04-26T02:40:18;99916.00;;;3.67;100.00
10638;BME280;47007;49.252;8.904;2023-04-26T02:41:01;99925.66;;;3.67;100.00
10638;BME280;47007;49.252;8.904;2023-04-26T02:41:44;99922.34;;;3.65;100.00
10638;BME280;47007;49.252;8.904;2023-04-26T02:42:25;99929.25;;;3.66;100.00
10638;BME280;47007;49.252;8.904;2023-04-26T02:43:07;99914.59;;;3.63;100.00
10638;BME280;47007;49.252;8.904;2023-04-26T02:43:52;99919.31;;;3.69;100.00
10638;BME280;47007;49.252;8.904;2023-04-26T02:44:33;99853.91;;;3.29;100.00
10638;BME280;47007;49.252;8.904;2023-04-26T02:45:16;99918.75;;;3.75;100.00
10638;BME280;47007;49.252;8.904;2023-04-26T02:45:57;99899.56;;;3.65;100.00
10638;BME280;47007;49.252;8.904;2023-04-26T02:46:41;99914.91;;;3.79;100.00
10638;BME280;47007;49.252;8.904;2023-04-26T02:47:23;99920.53;;;3.84;100.00
10638;BME280;47007;49.252;8.904;2023-04-26T02:48:05;99838.19;;;3.39;100.00
10638;BME280;47007;49.252;8.904;2023-04-26T02:48:47;99914.91;;;3.89;100.00
10638;BME280;47007;49.252;8.904;2023-04-26T02:49:29;99912.84;;;3.92;100.00
10638;BME280;47007;49.252;8.904;2023-04-26T02:50:11;99918.06;;;3.92;100.00
10638;BME280;47007;49.252;8.904;2023-04-26T02:50:52;99923.84;;;3.86;100.00
10638;BME280;47007;49.252;8.904;2023-04-26T02:51:34;99887.69;;;3.61;100.00
10638;BME280;47007;49.252;8.904;2023-04-26T02:52:16;99910.50;;;3.70;100.00
10638;BME280;47007;49.252;8.904;2023-04-26T02:52:57;99910.75;;;3.67;100.00
10638;BME280;47007;49.252;8.904;2023-04-26T02:53:39;99920.69;;;3.73;100.00
10638;BME280;47007;49.252;8.904;2023-04-26T02:54:21;99911.97;;;3.73;100.00
10638;BME280;47007;49.252;8.904;2023-04-26T02:55:03;99918.63;;;3.77;100.00
10638;BME280;47007;49.252;8.904;2023-04-26T02:55:45;99908.41;;;3.74;100.00
10638;BME280;47007;49.252;8.904;2023-04-26T02:56:27;99916.25;;;3.74;100.00
10638;BME280;47007;49.252;8.904;2023-04-26T02:57:08;99915.44;;;3.73;100.00
10638;BME280;47007;49.252;8.904;2023-04-26T02:57:50;99909.38;;;3.73;100.00
10638;BME280;47007;49.252;8.904;2023-04-26T02:58:32;99870.06;;;3.44;100.00
10638;BME280;47007;49.252;8.904;2023-04-26T02:59:13;99903.16;;;3.64;100.00
10638;BME280;47007;49.252;8.904;2023-04-26T02:59:56;99911.03;;;3.64;100.00
10638;BME280;47007;49.252;8.904;2023-04-26T03:00:38;99891.16;;;3.52;100.00
10638;BME280;47007;49.252;8.904;2023-04-26T03:01:20;99911.03;;;3.64;100.00
10638;BME280;47007;49.252;8.904;2023-04-26T03:02:02;99910.19;;;3.64;100.00
10638;BME280;47007;49.252;8.904;2023-04-26T03:02:44;99910.19;;;3.64;100.00
10638;BME280;47007;49.252;8.904;2023-04-26T03:03:26;99897.22;;;3.52;100.00
10638;BME280;47007;49.252;8.904;2023-04-26T03:04:08;99896.81;;;3.57;100.00
10638;BME280;47007;49.252;8.904;2023-04-26T03:04:51;99861.06;;;3.37;100.00
10638;BME280;47007;49.252;8.904;2023-04-26T03:05:36;99909.09;;;3.66;100.00
10638;BME280;47007;49.252;8.904;2023-04-26T03:06:17;99914.34;;;3.66;100.00
10638;BME280;47007;49.252;8.904;2023-04-26T03:06:59;99903.28;;;3.63;100.00
10638;BME280;47007;49.252;8.904;2023-04-26T03:07:41;99897.91;;;3.54;100.00
10638;BME280;47007;49.252;8.904;2023-04-26T03:08:23;99915.56;;;3.72;100.00
10638;BME280;47007;49.252;8.904;2023-04-26T03:09:05;99917.22;;;3.73;100.00
10638;BME280;47007;49.252;8.904;2023-04-26T03:09:50;99918.19;;;3.72;100.00
10638;BME280;47007;49.252;8.904;2023-04-26T03:10:31;99894.34;;;3.55;100.00
10638;BME280;47007;49.252;8.904;2023-04-26T03:11:13;99905.22;;;3.51;100.00
10638;BME280;47007;49.252;8.904;2023-04-26T03:11:55;99913.78;;;3.53;100.00
10638;BME280;47007;49.252;8.904;2023-04-26T03:12:37;99915.44;;;3.54;100.00
10638;BME280;47007;49.252;8.904;2023-04-26T03:13:22;99915.28;;;3.46;100.00
10638;BME280;47007;49.252;8.904;2023-04-26T03:14:04;99905.47;;;3.38;100.00
10638;BME280;47007;49.252;8.904;2023-04-26T03:14:47;99920.09;;;3.50;100.00
10638;BME280;47007;49.252;8.904;2023-04-26T03:15:29;99909.63;;;3.41;100.00
10638;BME280;47007;49.252;8.904;2023-04-26T03:16:11;99916.38;;;3.43;100.00
10638;BME280;47007;49.252;8.904;2023-04-26T03:16:53;99867.09;;;3.08;100.00
10638;BME280;47007;49.252;8.904;2023-04-26T03:17:36;99914.72;;;3.33;100.00
10638;BME280;47007;49.252;8.904;2023-04-26T03:18:18;99873.94;;;3.00;100.00
10638;BME280;47007;49.252;8.904;2023-04-26T03:19:00;99920.84;;;3.22;100.00
10638;BME280;47007;49.252;8.904;2023-04-26T03:19:42;99907.75;;;3.12;100.00
10638;BME280;47007;49.252;8.904;2023-04-26T03:20:25;99919.19;;;3.11;100.00
10638;BME280;47007;49.252;8.904;2023-04-26T03:21:06;99918.78;;;3.06;100.00
10638;BME280;47007;49.252;8.904;2023-04-26T03:21:48;99921.66;;;3.03;100.00
10638;BME280;47007;49.252;8.904;2023-04-26T03:22:30;99919.41;;;2.99;100.00
10638;BME280;47007;49.252;8.904;2023-04-26T03:23:12;99923.69;;;3.00;100.00
10638;BME280;47007;49.252;8.904;2023-04-26T03:23:54;99920.53;;;2.96;100.00
10638;BME280;47007;49.252;8.904;2023-04-26T03:24:36;99919.03;;;3.03;100.00
10638;BME280;47007;49.252;8.904;2023-04-26T03:25:17;99924.84;;;3.07;100.00
10638;BME280;47007;49.252;8.904;2023-04-26T03:25:59;99891.84;;;2.95;100.00
10638;BME280;47007;49.252;8.904;2023-04-26T03:26:41;99922.50;;;3.13;100.00
10638;BME280;47007;49.252;8.904;2023-04-26T03:27:23;99914.34;;;3.07;100.00
10638;BME280;47007;49.252;8.904;2023-04-26T03:28:05;99919.88;;;3.13;100.00
10638;BME280;47007;49.252;8.904;2023-04-26T03:28:46;99905.94;;;3.03;100.00
10638;BME280;47007;49.252;8.904;2023-04-26T03:29:28;99846.88;;;2.70;100.00
10638;BME280;47007;49.252;8.904;2023-04-26T03:30:10;99916.03;;;3.17;100.00
10638;BME280;47007;49.252;8.904;2023-04-26T03:30:53;99918.41;;;3.20;100.00
10638;BME280;47007;49.252;8.904;2023-04-26T03:31:35;99919.06;;;3.22;100.00
10638;BME280;47007;49.252;8.904;2023-04-26T03:32:17;99920.03;;;3.21;100.00
10638;BME280;47007;49.252;8.904;2023-04-26T03:32:59;99891.50;;;3.09;100.00
10638;BME280;47007;49.252;8.904;2023-04-26T03:33:41;99921.03;;;3.30;100.00
10638;BME280;47007;49.252;8.904;2023-04-26T03:34:22;99920.63;;;3.35;100.00
10638;BME280;47007;49.252;8.904;2023-04-26T03:35:04;99838.81;;;2.93;100.00
10638;BME280;47007;49.252;8.904;2023-04-26T03:35:46;99920.09;;;3.41;100.00
10638;BME280;47007;49.252;8.904;2023-04-26T03:36:28;99924.38;;;3.42;100.00
10638;BME280;47007;49.252;8.904;2023-04-26T03:37:10;99919.84;;;3.44;100.00
10638;BME280;47007;49.252;8.904;2023-04-26T03:37:52;99890.25;;;3.22;100.00
10638;BME280;47007;49.252;8.904;2023-04-26T03:38:36;99919.84;;;3.44;100.00
10638;BME280;47007;49.252;8.904;2023-04-26T03:39:18;99932.09;;;3.43;100.00
10638;BME280;47007;49.252;8.904;2023-04-26T03:40:00;99922.44;;;3.44;100.00
10638;BME280;47007;49.252;8.904;2023-04-26T03:40:41;99871.78;;;3.14;100.00
10638;BME280;47007;49.252;8.904;2023-04-26T03:41:23;99927.00;;;3.42;100.00
10638;BME280;47007;49.252;8.904;2023-04-26T03:42:06;99924.34;;;3.32;100.00
10638;BME280;47007;49.252;8.904;2023-04-26T03:42:49;99908.75;;;3.21;100.00
10638;BME280;47007;49.252;8.904;2023-04-26T03:43:30;99932.59;;;3.28;100.00
10638;BME280;47007;49.252;8.904;2023-04-26T03:44:13;99928.47;;;3.25;100.00